hwlogo.jpg (8581 bytes)
Home Your Weather Products Services Weather On Your Site Contact
HW Version Logo
Weather Info
Your Weather (Options)
Canadian Weather
International Weather
Enter your " Place, State", US Zip Code or ICAO:  
Forecast Information Radar Information
La Grande, Québec, Canada  Lat: 53.63N, Lon: 77.68W
ICAO Used: CYAH
Current Conditions
Updated: 2:15 AM EST MON FEB 19 2018
Sun & Moon Information
Mostly Cloudy
Mostly Cloudy
Temp: -23°C
Humidity: 83%
Wind Speed: WNW 5 MPH
Barometer: 1018 mb
Dewpoint: -25°C
Heat Index: -23°C
Wind Chill: -29°C
Civil Twilight: 6:48 AM EST Moon Phase:
Waxing Crescent Moon
Sunrise: 7:24 AM EST
Sunset: 5:24 PM EST
Civil Twilight: 6:00 PM EST
Forecast for La Grande, QC:
(Forecast based on TAF for )
0100 PM EST SUN FEB 18 2018
  
AFTERNOON EVENING
Partly
Cloudy
Partly
Cloudy
ZoneCast:
Dated: 0100 PM EST SUN FEB 18 2018
Afternoon...Partly cloudy with winds from the southsouthwest at 14 mph and gusts up to 25 mph.

Evening...Partly cloudy with winds from the southsouthwest at 14 mph and gusts up to 25 mph.

Original Encoded TAF:
Dated: 0100 PM EST SUN FEB 18 2018
2018/02/18 18:00
TAF CYAH 181738Z 1818/1822 25012G22KT P6SM FEW040 
      TEMPO 1818/1822 4SM -SN BKN040 
      RMK FCST BASED ON AUTO OBS. NXT FCST WILL BE ISSUED AT 191145Z